Terminal Aerodrome Forecast
Issued by NWS Sterling, VA

Current Version | Previous Version | Graphics & Text | Print | Product List | Glossary On
Versions: 1 2 3 4 5 6 7 8 9 10 11 12 13 14 15 16 17 18 19 20 21 22 23 24
000
FTUS41 KLWX 292300
TAFIAD
TAF
KIAD 292332Z 3000/3106 VRB03KT P6SM MIFG FEW090
     FM300100 33004KT P6SM SCT090
     FM301500 33009KT P6SM SCT070
     FM302300 33004KT P6SM FEW050=

USA.gov is the U.S. government's official web portal to all federal, state and local government web resources and services.